Terminal Aerodrome Forecast
Issued by NWS Charleston, WV

Current Version | Previous Version | Text Only | Print | Product List | Glossary Off
Versions: 1 2 3 4 5 6 7 8 9 10 11 12 13 14 15 16 17 18 19 20 21 22 23 24 25 26 27 28 29 30 31 32 33 34

098
FTUS41 KRLX 151600 AAH
TAFEKN
TAF AMD
KEKN 151600Z 1516/1612 31004KT P6SM FEW015 BKN100
     FM151900 32005KT P6SM SCT035
     FM160400 00000KT 4SM BR FEW035
     FM160600 00000KT 1/4SM FG VV001=

USA.gov is the U.S. government's official web portal to all federal, state and local government web resources and services.